createdAt,value
2017-09-21T00:01:08.069Z,11.50
2017-09-21T00:03:36.371Z,11.50
2017-09-21T00:06:03.895Z,11.50
2017-09-21T00:08:32.154Z,11.50
2017-09-21T00:10:59.675Z,11.50
2017-09-21T00:13:27.184Z,11.50
2017-09-21T00:15:55.469Z,11.50
2017-09-21T00:18:23.766Z,11.40
2017-09-21T00:20:51.264Z,11.40
2017-09-21T00:23:18.801Z,11.30
2017-09-21T00:25:46.305Z,11.30
2017-09-21T00:28:14.605Z,11.30
2017-09-21T00:30:42.117Z,11.30
2017-09-21T00:33:09.645Z,11.30
2017-09-21T00:35:37.171Z,11.30
2017-09-21T00:38:04.676Z,11.30
2017-09-21T00:40:32.235Z,11.30
2017-09-21T00:42:59.738Z,11.30
2017-09-21T00:45:28.013Z,11.20
2017-09-21T00:47:56.324Z,11.20
2017-09-21T00:50:23.873Z,11.20
2017-09-21T00:52:51.377Z,11.20
2017-09-21T00:55:18.908Z,11.20
2017-09-21T00:57:46.418Z,11.10
2017-09-21T01:00:14.708Z,11.10
2017-09-21T01:02:42.213Z,11.10
2017-09-21T01:05:09.757Z,11.10
2017-09-21T01:07:37.253Z,11.10
2017-09-21T01:10:04.788Z,11.10
2017-09-21T01:12:32.324Z,11.10
2017-09-21T01:14:59.836Z,11.00
2017-09-21T01:17:28.135Z,11.00
2017-09-21T01:19:55.645Z,11.00
2017-09-21T01:22:23.176Z,11.00
2017-09-21T01:24:50.688Z,11.00
2017-09-21T01:27:18.988Z,11.00
2017-09-21T01:29:46.485Z,11.00
2017-09-21T01:32:13.986Z,10.90
2017-09-21T01:34:41.536Z,10.90
2017-09-21T01:37:09.792Z,10.90
2017-09-21T01:39:38.071Z,10.80
2017-09-21T01:42:06.356Z,10.80
2017-09-21T01:44:34.667Z,10.80
2017-09-21T01:47:02.261Z,10.80
2017-09-21T01:49:29.768Z,10.70
2017-09-21T01:51:57.275Z,10.70
2017-09-21T01:54:24.805Z,10.70
2017-09-21T01:56:52.306Z,10.70
2017-09-21T01:59:19.833Z,10.70
2017-09-21T02:01:47.341Z,10.60
2017-09-21T02:04:15.697Z,10.50
2017-09-21T02:06:43.978Z,10.40
2017-09-21T02:09:11.489Z,10.40
2017-09-21T02:11:39.017Z,10.30
2017-09-21T02:14:06.549Z,10.20
2017-09-21T02:16:34.837Z,10.20
2017-09-21T02:19:03.128Z,10.20
2017-09-21T02:21:30.632Z,10.20
2017-09-21T02:23:58.154Z,10.20
2017-09-21T02:26:25.656Z,10.20
2017-09-21T02:28:53.182Z,10.20
2017-09-21T02:31:20.701Z,10.10
2017-09-21T02:33:49.017Z,10.20
2017-09-21T02:36:16.524Z,10.20
2017-09-21T02:38:44.796Z,10.30
2017-09-21T02:41:12.318Z,10.20
2017-09-21T02:43:39.820Z,10.20
2017-09-21T02:46:08.112Z,10.20
2017-09-21T02:48:36.386Z,10.20
2017-09-21T02:51:04.689Z,10.30
2017-09-21T02:53:32.200Z,10.20
2017-09-21T02:56:00.475Z,10.20
2017-09-21T02:58:28.777Z,10.10
2017-09-21T03:00:56.291Z,10.10
2017-09-21T03:03:23.813Z,10.10
2017-09-21T03:05:51.318Z,10.00
2017-09-21T03:08:18.868Z,10.10
2017-09-21T03:10:46.372Z,10.10
2017-09-21T03:13:13.880Z,10.10
2017-09-21T03:15:41.405Z,10.10
2017-09-21T03:18:08.920Z,10.10
2017-09-21T03:20:37.230Z,10.10
2017-09-21T03:23:04.727Z,10.10
2017-09-21T03:25:32.232Z,10.10
2017-09-21T03:27:59.749Z,10.10
2017-09-21T03:30:27.245Z,10.20
2017-09-21T03:32:54.781Z,10.20
2017-09-21T03:35:23.049Z,10.20
2017-09-21T03:37:51.324Z,10.30
2017-09-21T03:40:19.621Z,10.30
2017-09-21T03:42:47.128Z,10.30
2017-09-21T03:45:14.662Z,10.30
2017-09-21T03:47:42.165Z,10.40
2017-09-21T03:50:09.688Z,10.30
2017-09-21T03:52:37.205Z,10.30
2017-09-21T03:55:05.479Z,10.40
2017-09-21T03:57:33.019Z,10.40
2017-09-21T04:00:01.288Z,10.30
2017-09-21T04:02:28.817Z,10.20
2017-09-21T04:04:56.326Z,10.30
2017-09-21T04:07:23.869Z,10.20
2017-09-21T04:09:52.164Z,10.20
2017-09-21T04:12:19.672Z,10.20
2017-09-21T04:14:47.199Z,10.10
2017-09-21T04:17:14.701Z,10.00
2017-09-21T04:19:42.236Z,9.90
2017-09-21T04:22:09.738Z,9.90
2017-09-21T04:24:38.037Z,9.90
2017-09-21T04:27:05.545Z,9.90
2017-09-21T04:29:33.048Z,9.90
2017-09-21T04:32:00.577Z,9.90
2017-09-21T04:34:28.083Z,10.00
2017-09-21T04:36:55.608Z,10.00
2017-09-21T04:39:23.875Z,10.10
2017-09-21T04:41:52.172Z,10.10
2017-09-21T04:44:19.682Z,10.10
2017-09-21T04:46:47.207Z,10.10
2017-09-21T04:49:14.735Z,10.10
2017-09-21T04:51:43.000Z,10.10
2017-09-21T04:54:11.304Z,10.10
2017-09-21T04:56:38.816Z,10.00
2017-09-21T04:59:06.314Z,9.90
2017-09-21T05:01:33.833Z,9.90
2017-09-21T05:04:01.374Z,9.90
2017-09-21T05:06:28.905Z,9.90
2017-09-21T05:08:56.419Z,10.00
2017-09-21T05:11:24.731Z,10.00
2017-09-21T05:13:52.268Z,10.00
2017-09-21T05:16:20.535Z,9.90
2017-09-21T05:18:48.848Z,9.80
2017-09-21T05:21:16.372Z,9.80
2017-09-21T05:23:43.916Z,9.70
2017-09-21T05:26:11.422Z,9.70
2017-09-21T05:28:38.945Z,9.70
2017-09-21T05:31:06.444Z,9.70
2017-09-21T05:33:33.977Z,9.70
2017-09-21T05:36:01.492Z,9.70
2017-09-21T05:38:28.987Z,9.70
2017-09-21T05:40:56.528Z,9.70
2017-09-21T05:43:24.798Z,9.70
2017-09-21T05:45:53.080Z,9.70
2017-09-21T05:48:21.371Z,9.70
2017-09-21T05:50:48.890Z,9.70
2017-09-21T05:53:16.402Z,9.70
2017-09-21T05:55:43.948Z,9.70
2017-09-21T05:58:11.438Z,9.60
2017-09-21T06:00:38.937Z,9.60
2017-09-21T06:03:07.221Z,9.50
2017-09-21T06:05:35.506Z,9.50
2017-09-21T06:08:03.044Z,9.50
2017-09-21T06:10:31.315Z,9.50
2017-09-21T06:12:59.610Z,9.40
2017-09-21T06:15:27.873Z,9.30
2017-09-21T06:17:56.172Z,9.30
2017-09-21T06:20:23.673Z,9.30
2017-09-21T06:22:51.188Z,9.30
2017-09-21T06:25:18.701Z,9.40
2017-09-21T06:27:47.711Z,9.40
2017-09-21T06:30:16.011Z,9.50
2017-09-21T06:32:43.535Z,9.40
2017-09-21T06:35:11.800Z,9.60
2017-09-21T06:37:39.343Z,9.60
2017-09-21T06:40:06.838Z,9.80
2017-09-21T06:42:35.136Z,9.90
2017-09-21T06:45:02.637Z,9.90
2017-09-21T06:47:30.160Z,10.00
2017-09-21T06:49:57.673Z,10.10
2017-09-21T06:52:25.950Z,10.00
2017-09-21T06:54:54.256Z,9.90
2017-09-21T06:57:21.761Z,9.90
2017-09-21T06:59:49.309Z,9.90
2017-09-21T07:02:16.813Z,9.90
2017-09-21T07:04:45.080Z,10.20
2017-09-21T07:07:13.375Z,10.40
2017-09-21T07:09:40.876Z,10.30
2017-09-21T07:12:08.409Z,10.40
2017-09-21T07:14:35.920Z,10.40
2017-09-21T07:17:03.456Z,10.30
2017-09-21T07:19:31.012Z,10.40
2017-09-21T07:21:58.515Z,10.50
2017-09-21T07:24:26.096Z,10.60
2017-09-21T07:26:53.703Z,10.70
2017-09-21T07:29:21.249Z,10.80
2017-09-21T07:31:48.757Z,10.90
2017-09-21T07:34:16.258Z,10.80
2017-09-21T07:36:43.792Z,10.80
2017-09-21T07:39:11.341Z,10.70
2017-09-21T07:41:38.852Z,10.70
2017-09-21T07:44:06.352Z,10.90
2017-09-21T07:46:33.879Z,11.00
2017-09-21T07:49:02.144Z,11.10
2017-09-21T07:51:29.672Z,11.10
2017-09-21T07:53:57.196Z,11.20
2017-09-21T07:56:24.717Z,11.10
2017-09-21T07:58:52.240Z,11.20
2017-09-21T08:01:19.742Z,11.30
2017-09-21T08:03:47.271Z,11.40
2017-09-21T08:06:14.776Z,11.40
2017-09-21T08:08:42.300Z,11.50
2017-09-21T08:11:09.812Z,11.50
2017-09-21T08:13:37.359Z,11.60
2017-09-21T08:16:04.912Z,11.70
2017-09-21T08:18:32.423Z,11.80
2017-09-21T08:20:59.952Z,11.90
2017-09-21T08:23:27.476Z,12.10
2017-09-21T08:25:55.765Z,12.30
2017-09-21T08:28:23.278Z,12.30
2017-09-21T08:30:50.812Z,12.40
2017-09-21T08:33:18.324Z,12.50
2017-09-21T08:35:45.865Z,12.60
2017-09-21T08:38:14.132Z,13.00
2017-09-21T08:40:41.637Z,13.00
2017-09-21T08:43:09.163Z,13.10
2017-09-21T08:45:37.437Z,13.30
2017-09-21T08:48:05.739Z,13.50
2017-09-21T08:50:33.248Z,13.50
2017-09-21T08:53:00.770Z,13.60
2017-09-21T08:55:28.295Z,13.60
2017-09-21T08:57:56.580Z,13.80
2017-09-21T09:00:24.109Z,13.80
2017-09-21T09:02:51.608Z,14.00
2017-09-21T09:05:19.120Z,14.10
2017-09-21T09:07:46.642Z,14.30
2017-09-21T09:10:14.148Z,14.50
2017-09-21T09:12:42.452Z,14.70
2017-09-21T09:15:09.948Z,14.70
2017-09-21T09:17:37.460Z,14.80
2017-09-21T09:20:04.989Z,14.80
2017-09-21T09:22:33.270Z,15.00
2017-09-21T09:25:01.560Z,15.20
2017-09-21T09:27:29.821Z,15.30
2017-09-21T09:29:58.114Z,15.50
2017-09-21T09:32:25.637Z,15.40
2017-09-21T09:34:53.903Z,15.70
2017-09-21T09:37:21.420Z,15.70
2017-09-21T09:39:48.924Z,15.90
2017-09-21T09:42:16.480Z,16.10
2017-09-21T09:44:43.990Z,16.30
2017-09-21T09:47:11.493Z,16.50
2017-09-21T09:49:39.020Z,16.60
2017-09-21T09:52:06.517Z,16.70
2017-09-21T09:54:35.522Z,16.90
2017-09-21T09:57:03.092Z,16.90
2017-09-21T09:59:31.385Z,17.30
2017-09-21T10:01:58.955Z,17.30
2017-09-21T10:04:26.461Z,17.40
2017-09-21T10:06:53.998Z,17.50
2017-09-21T10:09:21.490Z,17.60
2017-09-21T10:11:49.788Z,17.80
2017-09-21T10:14:17.309Z,17.80
2017-09-21T10:16:46.310Z,18.00
2017-09-21T10:19:13.839Z,18.00
2017-09-21T10:21:41.345Z,18.20
2017-09-21T10:24:08.889Z,18.30
2017-09-21T10:26:37.181Z,18.70
2017-09-21T10:29:04.713Z,18.70
2017-09-21T10:31:32.980Z,18.90
2017-09-21T10:34:00.492Z,18.80
2017-09-21T10:36:27.993Z,18.90
2017-09-21T10:38:55.516Z,19.10
2017-09-21T10:41:23.023Z,19.30
2017-09-21T10:43:51.284Z,19.30
2017-09-21T10:46:18.815Z,19.30
2017-09-21T10:48:46.316Z,19.50
2017-09-21T10:51:14.607Z,19.90
2017-09-21T10:53:42.864Z,20.10
2017-09-21T10:56:11.147Z,20.20
2017-09-21T10:58:39.441Z,20.40
2017-09-21T11:01:06.928Z,20.40
2017-09-21T11:03:34.442Z,20.70
2017-09-21T11:06:02.706Z,21.00
2017-09-21T11:08:30.999Z,21.10
2017-09-21T11:10:58.525Z,21.00
2017-09-21T11:13:26.042Z,21.20
2017-09-21T11:15:53.625Z,21.40
2017-09-21T11:18:21.125Z,21.60
2017-09-21T11:20:49.417Z,21.60
2017-09-21T11:23:16.931Z,21.50
2017-09-21T11:25:44.452Z,21.70
2017-09-21T11:28:11.956Z,21.90
2017-09-21T11:30:40.243Z,21.90
2017-09-21T11:33:08.512Z,22.10
2017-09-21T11:35:36.789Z,22.50
2017-09-21T11:38:05.065Z,22.70
2017-09-21T11:40:33.318Z,23.00
2017-09-21T11:43:01.624Z,23.20
2017-09-21T11:45:29.125Z,23.10
2017-09-21T11:47:56.681Z,23.40
2017-09-21T11:50:25.153Z,23.40
2017-09-21T11:52:52.672Z,23.50
2017-09-21T11:55:20.952Z,23.50
2017-09-21T11:57:49.200Z,23.20
2017-09-21T12:00:16.757Z,23.20
2017-09-21T12:02:44.263Z,23.10
2017-09-21T12:05:11.769Z,22.80
2017-09-21T12:07:39.310Z,22.80
2017-09-21T12:10:06.819Z,22.90
2017-09-21T12:12:34.341Z,23.00
2017-09-21T12:15:01.948Z,22.80
2017-09-21T12:17:29.486Z,22.90
2017-09-21T12:19:57.753Z,22.40
2017-09-21T12:22:26.028Z,22.20
2017-09-21T12:24:54.365Z,21.90
2017-09-21T12:27:21.866Z,21.90
2017-09-21T12:29:50.137Z,22.10
2017-09-21T12:32:18.433Z,22.50
2017-09-21T12:34:45.957Z,22.40
2017-09-21T12:37:13.449Z,22.80
2017-09-21T12:39:41.009Z,22.80
2017-09-21T12:42:08.518Z,22.60
2017-09-21T12:44:36.025Z,22.30
2017-09-21T12:47:03.545Z,22.50
2017-09-21T12:49:31.041Z,22.80
2017-09-21T12:51:58.557Z,22.90
2017-09-21T12:54:26.061Z,23.10
2017-09-21T12:56:53.582Z,23.20
2017-09-21T12:59:21.913Z,23.70
2017-09-21T13:01:49.409Z,23.60
2017-09-21T13:04:16.927Z,24.00
2017-09-21T13:06:44.449Z,24.30
2017-09-21T13:09:11.981Z,24.40
2017-09-21T13:11:39.525Z,24.40
2017-09-21T13:14:07.016Z,24.60
2017-09-21T13:16:35.310Z,24.80
2017-09-21T13:19:02.822Z,24.80
2017-09-21T13:21:30.360Z,25.00
2017-09-21T13:23:57.874Z,25.10
2017-09-21T13:26:25.404Z,24.90
2017-09-21T13:28:52.947Z,24.70
2017-09-21T13:31:20.456Z,24.60
2017-09-21T13:33:47.955Z,24.70
2017-09-21T13:36:15.486Z,24.90
2017-09-21T13:38:43.003Z,24.80
2017-09-21T13:41:11.274Z,25.00
2017-09-21T13:43:39.568Z,25.20
2017-09-21T13:46:07.056Z,25.20
2017-09-21T13:48:34.572Z,25.00
2017-09-21T13:51:02.850Z,24.40
2017-09-21T13:53:31.138Z,24.40
2017-09-21T13:55:58.657Z,24.30
2017-09-21T13:58:26.145Z,24.50
2017-09-21T14:00:54.424Z,24.40
2017-09-21T14:03:21.944Z,24.40
2017-09-21T14:05:51.004Z,24.00
2017-09-21T14:08:18.545Z,24.00
2017-09-21T14:10:46.069Z,24.00
2017-09-21T14:13:14.328Z,24.30
2017-09-21T14:15:41.901Z,24.30
2017-09-21T14:18:09.393Z,24.50
2017-09-21T14:20:36.930Z,24.20
2017-09-21T14:23:05.208Z,23.80
2017-09-21T14:25:33.473Z,23.90
2017-09-21T14:28:01.788Z,23.90
2017-09-21T14:30:29.281Z,23.90
2017-09-21T14:32:56.788Z,23.60
2017-09-21T14:35:24.327Z,23.50
2017-09-21T14:37:52.595Z,23.90
2017-09-21T14:40:20.898Z,24.10
2017-09-21T14:42:48.422Z,24.00
2017-09-21T14:45:16.740Z,24.30
2017-09-21T14:47:44.236Z,24.30
2017-09-21T14:50:11.752Z,24.20
2017-09-21T14:52:39.298Z,24.10
2017-09-21T14:55:06.813Z,23.90
2017-09-21T14:57:34.365Z,23.90
2017-09-21T15:00:01.917Z,23.90
2017-09-21T15:02:29.418Z,23.80
2017-09-21T15:04:57.702Z,23.30
2017-09-21T15:07:25.225Z,23.30
2017-09-21T15:09:52.762Z,23.10
2017-09-21T15:12:20.259Z,23.00
2017-09-21T15:14:48.573Z,23.00
2017-09-21T15:17:16.064Z,23.00
2017-09-21T15:19:43.603Z,23.00
2017-09-21T15:22:11.136Z,22.90
2017-09-21T15:24:38.725Z,22.90
2017-09-21T15:27:06.261Z,22.80
2017-09-21T15:29:33.779Z,22.60
2017-09-21T15:32:02.097Z,22.40
2017-09-21T15:34:29.590Z,22.30
2017-09-21T15:36:57.104Z,22.10
2017-09-21T15:39:24.644Z,21.90
2017-09-21T15:41:52.145Z,21.70
2017-09-21T15:44:19.685Z,21.50
2017-09-21T15:46:47.202Z,21.20
2017-09-21T15:49:15.530Z,21.00
2017-09-21T15:51:43.045Z,20.90
2017-09-21T15:54:11.313Z,20.80
2017-09-21T15:56:39.612Z,20.70
2017-09-21T15:59:07.113Z,20.70
2017-09-21T16:01:34.712Z,20.60
2017-09-21T16:04:03.066Z,20.50
2017-09-21T16:06:30.605Z,20.50
2017-09-21T16:08:58.128Z,20.40
2017-09-21T16:11:25.622Z,20.30
2017-09-21T16:13:53.149Z,20.30
2017-09-21T16:16:20.658Z,20.20
2017-09-21T16:18:48.196Z,20.20
2017-09-21T16:21:15.709Z,20.10
2017-09-21T16:23:43.256Z,20.00
2017-09-21T16:26:11.518Z,19.90
2017-09-21T16:28:39.800Z,19.80
2017-09-21T16:31:08.113Z,19.70
2017-09-21T16:33:35.630Z,19.70
2017-09-21T16:36:03.962Z,19.60
2017-09-21T16:38:31.484Z,19.60
2017-09-21T16:40:59.013Z,19.50
2017-09-21T16:43:27.284Z,19.40
2017-09-21T16:45:54.799Z,19.40
2017-09-21T16:48:22.351Z,19.40
2017-09-21T16:50:49.853Z,19.40
2017-09-21T16:53:17.421Z,19.40
2017-09-21T16:55:45.686Z,19.20
2017-09-21T16:58:13.221Z,19.20
2017-09-21T17:00:40.724Z,19.20
2017-09-21T17:03:09.010Z,19.00
2017-09-21T17:05:36.552Z,19.00
2017-09-21T17:08:04.862Z,18.70
2017-09-21T17:10:32.372Z,18.70
2017-09-21T17:12:59.888Z,18.70
2017-09-21T17:15:27.427Z,18.60
2017-09-21T17:17:54.924Z,18.50
2017-09-21T17:20:22.468Z,18.40
2017-09-21T17:22:49.970Z,18.20
2017-09-21T17:25:18.290Z,18.00
2017-09-21T17:27:45.807Z,18.00
2017-09-21T17:30:14.104Z,17.80
2017-09-21T17:32:41.649Z,17.80
2017-09-21T17:35:09.926Z,17.60
2017-09-21T17:37:37.487Z,17.60
2017-09-21T17:40:05.010Z,17.50
2017-09-21T17:42:34.087Z,17.30
2017-09-21T17:45:01.593Z,17.30
2017-09-21T17:47:29.105Z,17.20
2017-09-21T17:49:56.618Z,17.20
2017-09-21T17:52:24.128Z,17.10
2017-09-21T17:54:51.664Z,17.00
2017-09-21T17:57:19.170Z,17.00
2017-09-21T17:59:47.470Z,16.80
2017-09-21T18:02:14.984Z,16.80
2017-09-21T18:04:42.505Z,16.80
2017-09-21T18:07:10.063Z,16.70
2017-09-21T18:09:37.560Z,16.60
2017-09-21T18:12:05.699Z,16.60
2017-09-21T18:14:33.208Z,16.50
2017-09-21T18:17:01.514Z,16.40
2017-09-21T18:19:29.022Z,16.40
2017-09-21T18:21:57.342Z,16.30
2017-09-21T18:24:24.877Z,16.30
2017-09-21T18:26:53.159Z,16.10
2017-09-21T18:29:21.468Z,16.00
2017-09-21T18:31:48.965Z,16.10
2017-09-21T18:34:16.505Z,16.00
2017-09-21T18:36:44.035Z,16.00
2017-09-21T18:39:11.609Z,15.90
2017-09-21T18:41:39.137Z,15.90
2017-09-21T18:44:06.660Z,15.80
2017-09-21T18:46:34.218Z,15.80
2017-09-21T18:49:01.729Z,15.70
2017-09-21T18:51:29.280Z,15.70
2017-09-21T18:53:56.792Z,15.70
2017-09-21T18:56:24.312Z,15.60
2017-09-21T18:58:51.823Z,15.60
2017-09-21T19:01:20.123Z,15.50
2017-09-21T19:03:47.650Z,15.50
2017-09-21T19:06:15.942Z,15.40
2017-09-21T19:08:43.554Z,15.40
2017-09-21T19:11:11.078Z,15.40
2017-09-21T19:13:38.649Z,15.40
2017-09-21T19:16:06.190Z,15.30
2017-09-21T19:18:33.699Z,15.30
2017-09-21T19:21:02.756Z,15.20
2017-09-21T19:23:30.273Z,15.20
2017-09-21T19:25:58.585Z,15.10
2017-09-21T19:28:26.105Z,15.10
2017-09-21T19:30:54.380Z,15.00
2017-09-21T19:33:22.820Z,15.00
2017-09-21T19:35:50.324Z,15.00
2017-09-21T19:38:17.926Z,14.90
2017-09-21T19:40:45.471Z,14.90
2017-09-21T19:43:12.995Z,14.90
2017-09-21T19:45:41.306Z,14.70
2017-09-21T19:48:08.824Z,14.70
2017-09-21T19:50:37.166Z,14.70
2017-09-21T19:53:04.667Z,14.60
2017-09-21T19:55:32.242Z,14.60
2017-09-21T19:57:59.755Z,14.60
2017-09-21T20:00:28.053Z,14.50
2017-09-21T20:02:56.342Z,14.50
2017-09-21T20:05:23.876Z,14.40
2017-09-21T20:07:51.438Z,14.40
2017-09-21T20:10:19.707Z,14.30
2017-09-21T20:12:48.013Z,14.30
2017-09-21T20:15:15.542Z,14.30
2017-09-21T20:17:43.814Z,14.20
2017-09-21T20:20:12.107Z,14.20
2017-09-21T20:22:39.637Z,14.20
2017-09-21T20:25:07.162Z,14.20
2017-09-21T20:27:34.665Z,14.10
2017-09-21T20:30:02.961Z,14.00
2017-09-21T20:32:30.494Z,14.00
2017-09-21T20:34:58.768Z,14.00
2017-09-21T20:37:27.093Z,13.90
2017-09-21T20:39:54.609Z,13.90
2017-09-21T20:42:22.206Z,13.90
2017-09-21T20:44:49.712Z,13.80
2017-09-21T20:47:17.236Z,13.90
2017-09-21T20:49:44.882Z,13.80
2017-09-21T20:52:12.389Z,13.80
2017-09-21T20:54:39.945Z,13.70
2017-09-21T20:57:07.450Z,13.70
2017-09-21T20:59:34.959Z,13.70
2017-09-21T21:02:02.505Z,13.60
2017-09-21T21:04:30.021Z,13.60
2017-09-21T21:06:57.826Z,13.60
2017-09-21T21:09:25.350Z,13.60
2017-09-21T21:11:52.865Z,13.50
2017-09-21T21:14:21.189Z,13.50
2017-09-21T21:16:48.697Z,13.50
2017-09-21T21:19:16.247Z,13.50
2017-09-21T21:21:43.800Z,13.40
2017-09-21T21:24:11.416Z,13.30
2017-09-21T21:26:38.919Z,13.30
2017-09-21T21:29:06.424Z,13.30
2017-09-21T21:31:33.972Z,13.30
2017-09-21T21:34:01.464Z,13.30
2017-09-21T21:36:29.032Z,13.30
2017-09-21T21:38:56.572Z,13.30
2017-09-21T21:41:24.080Z,13.20
2017-09-21T21:43:52.391Z,13.20
2017-09-21T21:46:19.893Z,13.20
2017-09-21T21:48:47.393Z,13.10
2017-09-21T21:51:14.912Z,13.10
2017-09-21T21:53:42.416Z,13.10
2017-09-21T21:56:09.945Z,13.00
2017-09-21T21:58:37.464Z,13.10
2017-09-21T22:01:04.990Z,13.00
2017-09-21T22:03:32.504Z,13.00
2017-09-21T22:06:00.030Z,12.90
2017-09-21T22:08:27.550Z,12.90
2017-09-21T22:10:55.069Z,12.90
2017-09-21T22:13:23.390Z,12.90
2017-09-21T22:15:50.889Z,12.80
2017-09-21T22:18:18.408Z,12.80
2017-09-21T22:20:45.944Z,12.80
2017-09-21T22:23:14.231Z,12.80
2017-09-21T22:25:41.761Z,12.80
2017-09-21T22:28:09.266Z,12.80
2017-09-21T22:30:36.812Z,12.80
2017-09-21T22:33:04.320Z,12.70
2017-09-21T22:35:31.866Z,12.70
2017-09-21T22:37:59.376Z,12.70
2017-09-21T22:40:27.641Z,12.70
2017-09-21T22:42:55.933Z,12.70
2017-09-21T22:45:23.462Z,12.60
2017-09-21T22:47:51.007Z,12.60
2017-09-21T22:50:18.517Z,12.60
2017-09-21T22:52:46.056Z,12.60
2017-09-21T22:55:13.620Z,12.60
2017-09-21T22:57:41.124Z,12.60
2017-09-21T23:00:08.631Z,12.50
2017-09-21T23:02:36.161Z,12.50
2017-09-21T23:05:03.703Z,12.50
2017-09-21T23:07:31.206Z,12.40
2017-09-21T23:09:58.736Z,12.40
2017-09-21T23:12:26.253Z,12.40
2017-09-21T23:14:53.790Z,12.40
2017-09-21T23:17:21.324Z,12.40
2017-09-21T23:19:49.617Z,12.30
2017-09-21T23:22:17.184Z,12.30
2017-09-21T23:24:44.696Z,12.30
2017-09-21T23:27:12.225Z,12.30
2017-09-21T23:29:39.756Z,12.20
2017-09-21T23:32:07.285Z,12.20
2017-09-21T23:34:35.571Z,12.20
2017-09-21T23:37:03.102Z,12.20
2017-09-21T23:39:30.620Z,12.20
2017-09-21T23:41:58.208Z,12.10
2017-09-21T23:44:25.714Z,12.10
2017-09-21T23:46:53.220Z,12.10
2017-09-21T23:49:20.745Z,12.10
2017-09-21T23:51:48.244Z,12.10
2017-09-21T23:54:15.796Z,12.10
2017-09-21T23:56:43.312Z,12.10
2017-09-21T23:59:10.868Z,12.10
